sensor_id;sensor_type;location;lat;lon;timestamp;P1;durP1;ratioP1;P2;durP2;ratioP2
24547;SDS011;12713;51.624;4.924;2023-08-07T00:00:11;11.65;;;2.97;;
24547;SDS011;12713;51.624;4.924;2023-08-07T00:02:37;9.93;;;3.17;;
24547;SDS011;12713;51.624;4.924;2023-08-07T00:05:04;9.55;;;2.85;;
24547;SDS011;12713;51.624;4.924;2023-08-07T00:07:30;18.38;;;3.47;;
24547;SDS011;12713;51.624;4.924;2023-08-07T00:09:56;13.88;;;2.53;;
24547;SDS011;12713;51.624;4.924;2023-08-07T00:12:22;12.00;;;3.38;;
24547;SDS011;12713;51.624;4.924;2023-08-07T00:14:51;14.38;;;3.42;;
24547;SDS011;12713;51.624;4.924;2023-08-07T00:17:17;13.75;;;3.33;;
24547;SDS011;12713;51.624;4.924;2023-08-07T00:19:43;14.77;;;3.10;;
24547;SDS011;12713;51.624;4.924;2023-08-07T00:22:09;15.45;;;2.88;;
24547;SDS011;12713;51.624;4.924;2023-08-07T00:24:35;14.80;;;2.53;;
24547;SDS011;12713;51.624;4.924;2023-08-07T00:27:01;14.13;;;2.85;;
24547;SDS011;12713;51.624;4.924;2023-08-07T00:29:28;7.28;;;2.83;;
24547;SDS011;12713;51.624;4.924;2023-08-07T00:31:54;9.13;;;3.35;;
24547;SDS011;12713;51.624;4.924;2023-08-07T00:34:20;8.43;;;3.00;;
24547;SDS011;12713;51.624;4.924;2023-08-07T00:36:46;11.50;;;3.17;;
24547;SDS011;12713;51.624;4.924;2023-08-07T00:39:12;14.35;;;3.65;;
24547;SDS011;12713;51.624;4.924;2023-08-07T00:41:38;13.30;;;2.88;;
24547;SDS011;12713;51.624;4.924;2023-08-07T00:44:04;10.43;;;2.88;;
24547;SDS011;12713;51.624;4.924;2023-08-07T00:46:31;12.23;;;3.05;;
24547;SDS011;12713;51.624;4.924;2023-08-07T00:48:57;13.52;;;3.00;;
24547;SDS011;12713;51.624;4.924;2023-08-07T00:51:23;12.27;;;3.00;;
24547;SDS011;12713;51.624;4.924;2023-08-07T00:53:49;11.80;;;3.08;;
24547;SDS011;12713;51.624;4.924;2023-08-07T00:56:16;14.13;;;3.08;;
24547;SDS011;12713;51.624;4.924;2023-08-07T00:58:42;14.25;;;2.80;;
24547;SDS011;12713;51.624;4.924;2023-08-07T01:01:11;17.48;;;3.83;;
24547;SDS011;12713;51.624;4.924;2023-08-07T01:03:37;15.18;;;3.20;;
24547;SDS011;12713;51.624;4.924;2023-08-07T01:06:03;11.75;;;3.30;;
24547;SDS011;12713;51.624;4.924;2023-08-07T01:11:49;13.98;;;2.95;;
24547;SDS011;12713;51.624;4.924;2023-08-07T01:21:18;26.92;;;3.92;;
24547;SDS011;12713;51.624;4.924;2023-08-07T01:26:55;11.98;;;2.65;;
24547;SDS011;12713;51.624;4.924;2023-08-07T01:29:24;9.40;;;3.22;;
24547;SDS011;12713;51.624;4.924;2023-08-07T01:32:08;10.68;;;3.47;;
24547;SDS011;12713;51.624;4.924;2023-08-07T01:34:41;10.15;;;3.25;;
24547;SDS011;12713;51.624;4.924;2023-08-07T01:37:16;9.77;;;2.85;;
24547;SDS011;12713;51.624;4.924;2023-08-07T01:39:49;12.07;;;3.22;;
24547;SDS011;12713;51.624;4.924;2023-08-07T01:42:20;18.33;;;3.70;;
24547;SDS011;12713;51.624;4.924;2023-08-07T01:44:52;13.15;;;3.22;;
24547;SDS011;12713;51.624;4.924;2023-08-07T01:47:21;9.50;;;3.10;;
24547;SDS011;12713;51.624;4.924;2023-08-07T01:49:50;12.02;;;3.50;;
24547;SDS011;12713;51.624;4.924;2023-08-07T01:52:34;13.30;;;4.03;;
24547;SDS011;12713;51.624;4.924;2023-08-07T01:55:03;11.60;;;3.58;;
24547;SDS011;12713;51.624;4.924;2023-08-07T01:57:29;13.05;;;3.38;;
24547;SDS011;12713;51.624;4.924;2023-08-07T01:59:56;9.70;;;3.30;;
24547;SDS011;12713;51.624;4.924;2023-08-07T02:02:22;16.17;;;3.85;;
24547;SDS011;12713;51.624;4.924;2023-08-07T02:04:48;17.02;;;3.65;;
24547;SDS011;12713;51.624;4.924;2023-08-07T02:07:14;10.65;;;3.00;;
24547;SDS011;12713;51.624;4.924;2023-08-07T02:09:43;9.20;;;3.10;;
24547;SDS011;12713;51.624;4.924;2023-08-07T02:12:09;18.20;;;4.25;;
24547;SDS011;12713;51.624;4.924;2023-08-07T02:14:35;13.60;;;3.40;;
24547;SDS011;12713;51.624;4.924;2023-08-07T02:17:01;10.70;;;3.45;;
24547;SDS011;12713;51.624;4.924;2023-08-07T02:19:27;12.55;;;4.50;;
24547;SDS011;12713;51.624;4.924;2023-08-07T02:21:53;8.20;;;2.92;;
24547;SDS011;12713;51.624;4.924;2023-08-07T02:24:19;10.10;;;3.65;;
24547;SDS011;12713;51.624;4.924;2023-08-07T02:26:45;15.65;;;3.55;;
24547;SDS011;12713;51.624;4.924;2023-08-07T02:29:14;12.25;;;3.75;;
24547;SDS011;12713;51.624;4.924;2023-08-07T02:31:40;12.18;;;3.53;;
24547;SDS011;12713;51.624;4.924;2023-08-07T02:34:06;13.20;;;3.03;;
24547;SDS011;12713;51.624;4.924;2023-08-07T02:36:35;9.45;;;3.67;;
24547;SDS011;12713;51.624;4.924;2023-08-07T02:39:01;16.50;;;3.63;;
24547;SDS011;12713;51.624;4.924;2023-08-07T02:41:28;14.45;;;3.60;;
24547;SDS011;12713;51.624;4.924;2023-08-07T02:43:54;10.45;;;3.75;;
24547;SDS011;12713;51.624;4.924;2023-08-07T02:46:20;9.85;;;3.15;;
24547;SDS011;12713;51.624;4.924;2023-08-07T02:48:46;14.13;;;3.60;;
24547;SDS011;12713;51.624;4.924;2023-08-07T02:51:12;12.95;;;3.47;;
24547;SDS011;12713;51.624;4.924;2023-08-07T02:53:38;9.70;;;3.28;;
24547;SDS011;12713;51.624;4.924;2023-08-07T02:56:04;12.32;;;4.00;;
24547;SDS011;12713;51.624;4.924;2023-08-07T02:58:30;20.77;;;4.13;;
24547;SDS011;12713;51.624;4.924;2023-08-07T03:00:56;13.13;;;3.67;;
24547;SDS011;12713;51.624;4.924;2023-08-07T03:03:23;11.77;;;4.10;;
24547;SDS011;12713;51.624;4.924;2023-08-07T03:05:49;11.95;;;3.78;;
24547;SDS011;12713;51.624;4.924;2023-08-07T03:08:15;11.90;;;4.13;;
24547;SDS011;12713;51.624;4.924;2023-08-07T03:10:41;12.15;;;3.50;;
24547;SDS011;12713;51.624;4.924;2023-08-07T03:13:07;13.85;;;4.35;;
24547;SDS011;12713;51.624;4.924;2023-08-07T03:15:33;15.00;;;3.63;;
24547;SDS011;12713;51.624;4.924;2023-08-07T03:17:59;9.15;;;3.60;;
24547;SDS011;12713;51.624;4.924;2023-08-07T03:20:25;18.23;;;4.20;;
24547;SDS011;12713;51.624;4.924;2023-08-07T03:22:51;16.73;;;4.22;;
24547;SDS011;12713;51.624;4.924;2023-08-07T03:25:18;11.50;;;3.55;;
24547;SDS011;12713;51.624;4.924;2023-08-07T03:27:44;11.77;;;4.00;;
24547;SDS011;12713;51.624;4.924;2023-08-07T03:30:10;17.73;;;3.65;;
24547;SDS011;12713;51.624;4.924;2023-08-07T03:32:36;14.32;;;4.05;;
24547;SDS011;12713;51.624;4.924;2023-08-07T03:35:02;13.80;;;3.70;;
24547;SDS011;12713;51.624;4.924;2023-08-07T03:37:28;18.77;;;4.25;;
24547;SDS011;12713;51.624;4.924;2023-08-07T03:39:54;15.25;;;3.85;;
24547;SDS011;12713;51.624;4.924;2023-08-07T03:42:20;12.02;;;4.25;;
24547;SDS011;12713;51.624;4.924;2023-08-07T03:44:46;8.23;;;2.95;;
24547;SDS011;12713;51.624;4.924;2023-08-07T03:47:12;10.45;;;3.33;;
24547;SDS011;12713;51.624;4.924;2023-08-07T03:49:39;15.35;;;3.40;;
24547;SDS011;12713;51.624;4.924;2023-08-07T03:52:05;15.30;;;3.72;;
24547;SDS011;12713;51.624;4.924;2023-08-07T03:54:31;11.88;;;3.35;;
24547;SDS011;12713;51.624;4.924;2023-08-07T03:57:00;16.05;;;4.03;;
24547;SDS011;12713;51.624;4.924;2023-08-07T03:59:26;14.02;;;3.67;;
24547;SDS011;12713;51.624;4.924;2023-08-07T04:01:52;12.75;;;3.40;;
24547;SDS011;12713;51.624;4.924;2023-08-07T04:04:18;10.70;;;3.38;;
24547;SDS011;12713;51.624;4.924;2023-08-07T04:06:44;6.90;;;3.10;;
24547;SDS011;12713;51.624;4.924;2023-08-07T04:09:10;21.45;;;4.15;;
24547;SDS011;12713;51.624;4.924;2023-08-07T04:11:36;9.65;;;3.22;;
24547;SDS011;12713;51.624;4.924;2023-08-07T04:14:02;12.80;;;3.28;;
24547;SDS011;12713;51.624;4.924;2023-08-07T04:16:29;11.68;;;3.85;;
24547;SDS011;12713;51.624;4.924;2023-08-07T04:18:57;8.45;;;2.83;;
24547;SDS011;12713;51.624;4.924;2023-08-07T04:21:23;13.43;;;3.20;;
24547;SDS011;12713;51.624;4.924;2023-08-07T04:23:49;7.50;;;3.08;;
24547;SDS011;12713;51.624;4.924;2023-08-07T04:26:15;12.60;;;2.47;;
24547;SDS011;12713;51.624;4.924;2023-08-07T04:28:42;11.82;;;2.85;;
24547;SDS011;12713;51.624;4.924;2023-08-07T04:31:08;19.75;;;3.78;;
24547;SDS011;12713;51.624;4.924;2023-08-07T04:33:34;13.13;;;3.30;;
24547;SDS011;12713;51.624;4.924;2023-08-07T04:36:01;10.43;;;2.70;;
24547;SDS011;12713;51.624;4.924;2023-08-07T04:38:27;14.55;;;3.55;;
24547;SDS011;12713;51.624;4.924;2023-08-07T04:40:53;8.43;;;2.60;;
24547;SDS011;12713;51.624;4.924;2023-08-07T04:43:19;18.88;;;3.58;;
24547;SDS011;12713;51.624;4.924;2023-08-07T04:45:45;15.00;;;3.97;;
24547;SDS011;12713;51.624;4.924;2023-08-07T04:48:11;12.13;;;3.33;;
24547;SDS011;12713;51.624;4.924;2023-08-07T04:50:37;8.57;;;2.53;;
24547;SDS011;12713;51.624;4.924;2023-08-07T04:53:04;15.95;;;3.63;;
24547;SDS011;12713;51.624;4.924;2023-08-07T04:55:30;12.48;;;3.30;;
24547;SDS011;12713;51.624;4.924;2023-08-07T04:57:56;11.48;;;2.55;;
24547;SDS011;12713;51.624;4.924;2023-08-07T05:00:27;10.13;;;2.97;;
24547;SDS011;12713;51.624;4.924;2023-08-07T05:02:53;11.82;;;3.08;;
24547;SDS011;12713;51.624;4.924;2023-08-07T05:05:19;12.07;;;3.13;;
24547;SDS011;12713;51.624;4.924;2023-08-07T05:07:46;8.50;;;2.55;;
24547;SDS011;12713;51.624;4.924;2023-08-07T05:10:13;9.88;;;3.22;;
24547;SDS011;12713;51.624;4.924;2023-08-07T05:12:39;11.10;;;2.83;;
24547;SDS011;12713;51.624;4.924;2023-08-07T05:15:05;15.10;;;3.03;;
24547;SDS011;12713;51.624;4.924;2023-08-07T05:17:31;10.75;;;3.45;;
24547;SDS011;12713;51.624;4.924;2023-08-07T05:19:57;9.00;;;3.00;;
24547;SDS011;12713;51.624;4.924;2023-08-07T05:22:26;16.58;;;3.50;;
24547;SDS011;12713;51.624;4.924;2023-08-07T05:24:52;16.70;;;4.15;;
24547;SDS011;12713;51.624;4.924;2023-08-07T05:27:18;15.57;;;3.58;;
24547;SDS011;12713;51.624;4.924;2023-08-07T05:29:45;13.13;;;3.15;;
24547;SDS011;12713;51.624;4.924;2023-08-07T05:32:11;11.85;;;3.70;;
24547;SDS011;12713;51.624;4.924;2023-08-07T05:34:37;16.90;;;2.88;;
24547;SDS011;12713;51.624;4.924;2023-08-07T05:37:04;12.93;;;3.53;;
24547;SDS011;12713;51.624;4.924;2023-08-07T05:39:30;28.52;;;3.67;;
24547;SDS011;12713;51.624;4.924;2023-08-07T05:41:56;12.30;;;3.08;;
24547;SDS011;12713;51.624;4.924;2023-08-07T05:44:26;14.27;;;3.13;;
24547;SDS011;12713;51.624;4.924;2023-08-07T05:46:52;11.77;;;2.85;;
24547;SDS011;12713;51.624;4.924;2023-08-07T05:49:18;16.15;;;2.88;;
24547;SDS011;12713;51.624;4.924;2023-08-07T05:51:44;13.80;;;2.83;;
24547;SDS011;12713;51.624;4.924;2023-08-07T05:54:10;12.98;;;2.50;;
24547;SDS011;12713;51.624;4.924;2023-08-07T05:56:37;10.75;;;3.67;;
24547;SDS011;12713;51.624;4.924;2023-08-07T05:59:03;11.70;;;2.80;;
24547;SDS011;12713;51.624;4.924;2023-08-07T06:01:29;10.35;;;2.47;;
24547;SDS011;12713;51.624;4.924;2023-08-07T06:03:56;14.35;;;2.45;;
24547;SDS011;12713;51.624;4.924;2023-08-07T06:06:22;11.88;;;2.85;;
24547;SDS011;12713;51.624;4.924;2023-08-07T06:08:48;15.82;;;2.58;;
24547;SDS011;12713;51.624;4.924;2023-08-07T06:11:14;12.50;;;2.28;;
24547;SDS011;12713;51.624;4.924;2023-08-07T06:13:40;11.98;;;2.22;;
24547;SDS011;12713;51.624;4.924;2023-08-07T06:16:06;12.52;;;2.35;;
24547;SDS011;12713;51.624;4.924;2023-08-07T06:18:32;11.05;;;2.47;;
24547;SDS011;12713;51.624;4.924;2023-08-07T06:20:59;10.57;;;3.33;;
24547;SDS011;12713;51.624;4.924;2023-08-07T06:23:25;15.35;;;2.22;;
24547;SDS011;12713;51.624;4.924;2023-08-07T06:25:51;16.70;;;2.50;;
24547;SDS011;12713;51.624;4.924;2023-08-07T06:28:17;15.88;;;3.25;;
24547;SDS011;12713;51.624;4.924;2023-08-07T06:30:43;15.23;;;2.53;;
24547;SDS011;12713;51.624;4.924;2023-08-07T06:33:10;9.38;;;2.35;;
24547;SDS011;12713;51.624;4.924;2023-08-07T06:35:39;8.20;;;2.13;;
24547;SDS011;12713;51.624;4.924;2023-08-07T06:38:07;12.25;;;2.50;;
24547;SDS011;12713;51.624;4.924;2023-08-07T06:40:36;11.68;;;3.13;;
24547;SDS011;12713;51.624;4.924;2023-08-07T06:43:03;10.38;;;2.53;;
24547;SDS011;12713;51.624;4.924;2023-08-07T06:45:29;12.88;;;2.55;;
24547;SDS011;12713;51.624;4.924;2023-08-07T06:47:55;9.40;;;2.75;;
24547;SDS011;12713;51.624;4.924;2023-08-07T06:50:21;12.40;;;2.38;;
24547;SDS011;12713;51.624;4.924;2023-08-07T06:52:47;10.68;;;2.15;;
24547;SDS011;12713;51.624;4.924;2023-08-07T06:55:16;8.93;;;2.78;;
24547;SDS011;12713;51.624;4.924;2023-08-07T06:57:42;9.85;;;2.05;;
24547;SDS011;12713;51.624;4.924;2023-08-07T07:00:08;8.80;;;2.20;;
24547;SDS011;12713;51.624;4.924;2023-08-07T07:02:39;10.98;;;2.67;;
24547;SDS011;12713;51.624;4.924;2023-08-07T07:05:05;11.98;;;2.40;;
24547;SDS011;12713;51.624;4.924;2023-08-07T07:07:31;11.75;;;2.58;;
24547;SDS011;12713;51.624;4.924;2023-08-07T07:10:00;10.57;;;2.42;;
24547;SDS011;12713;51.624;4.924;2023-08-07T07:12:26;13.85;;;2.67;;
24547;SDS011;12713;51.624;4.924;2023-08-07T07:14:52;8.10;;;2.13;;
24547;SDS011;12713;51.624;4.924;2023-08-07T07:17:19;10.45;;;2.20;;
24547;SDS011;12713;51.624;4.924;2023-08-07T07:19:45;11.25;;;2.20;;
24547;SDS011;12713;51.624;4.924;2023-08-07T07:22:11;10.88;;;3.25;;
24547;SDS011;12713;51.624;4.924;2023-08-07T07:24:37;9.63;;;2.00;;
24547;SDS011;12713;51.624;4.924;2023-08-07T07:27:03;16.90;;;3.03;;
24547;SDS011;12713;51.624;4.924;2023-08-07T07:29:32;13.60;;;2.58;;
24547;SDS011;12713;51.624;4.924;2023-08-07T07:32:02;8.60;;;2.45;;
24547;SDS011;12713;51.624;4.924;2023-08-07T07:34:28;12.05;;;2.58;;
24547;SDS011;12713;51.624;4.924;2023-08-07T07:36:54;8.88;;;2.28;;
24547;SDS011;12713;51.624;4.924;2023-08-07T07:39:20;12.77;;;2.78;;
24547;SDS011;12713;51.624;4.924;2023-08-07T07:41:46;15.52;;;2.88;;
24547;SDS011;12713;51.624;4.924;2023-08-07T07:44:13;7.82;;;2.13;;
24547;SDS011;12713;51.624;4.924;2023-08-07T07:46:39;8.77;;;2.28;;
24547;SDS011;12713;51.624;4.924;2023-08-07T07:49:05;14.15;;;2.60;;
24547;SDS011;12713;51.624;4.924;2023-08-07T07:51:31;8.52;;;1.88;;
24547;SDS011;12713;51.624;4.924;2023-08-07T07:53:58;7.43;;;1.80;;
24547;SDS011;12713;51.624;4.924;2023-08-07T07:56:24;5.32;;;1.88;;
24547;SDS011;12713;51.624;4.924;2023-08-07T07:58:50;6.93;;;1.90;;
24547;SDS011;12713;51.624;4.924;2023-08-07T08:01:16;7.43;;;1.67;;
24547;SDS011;12713;51.624;4.924;2023-08-07T08:03:43;8.55;;;2.00;;
24547;SDS011;12713;51.624;4.924;2023-08-07T08:06:12;5.50;;;2.10;;
24547;SDS011;12713;51.624;4.924;2023-08-07T08:08:38;9.48;;;2.40;;
24547;SDS011;12713;51.624;4.924;2023-08-07T08:11:04;4.50;;;1.75;;
24547;SDS011;12713;51.624;4.924;2023-08-07T08:13:30;8.15;;;2.03;;
24547;SDS011;12713;51.624;4.924;2023-08-07T08:15:57;10.07;;;1.98;;
24547;SDS011;12713;51.624;4.924;2023-08-07T08:18:25;7.75;;;2.13;;
24547;SDS011;12713;51.624;4.924;2023-08-07T08:20:52;7.80;;;1.90;;
24547;SDS011;12713;51.624;4.924;2023-08-07T08:23:18;5.47;;;1.90;;
24547;SDS011;12713;51.624;4.924;2023-08-07T08:25:44;6.90;;;2.30;;
24547;SDS011;12713;51.624;4.924;2023-08-07T08:28:16;6.85;;;2.10;;
24547;SDS011;12713;51.624;4.924;2023-08-07T08:30:46;5.47;;;2.30;;
24547;SDS011;12713;51.624;4.924;2023-08-07T08:33:19;7.22;;;2.00;;
24547;SDS011;12713;51.624;4.924;2023-08-07T08:35:48;9.70;;;2.30;;
24547;SDS011;12713;51.624;4.924;2023-08-07T08:38:14;12.38;;;2.42;;
24547;SDS011;12713;51.624;4.924;2023-08-07T08:40:45;9.68;;;2.25;;
24547;SDS011;12713;51.624;4.924;2023-08-07T08:43:14;6.40;;;1.95;;
24547;SDS011;12713;51.624;4.924;2023-08-07T08:45:40;9.95;;;2.20;;
24547;SDS011;12713;51.624;4.924;2023-08-07T08:48:07;7.38;;;2.13;;
24547;SDS011;12713;51.624;4.924;2023-08-07T08:50:33;7.22;;;2.08;;
24547;SDS011;12713;51.624;4.924;2023-08-07T08:53:00;4.35;;;2.05;;
24547;SDS011;12713;51.624;4.924;2023-08-07T08:55:28;5.97;;;2.10;;
24547;SDS011;12713;51.624;4.924;2023-08-07T08:57:55;9.30;;;2.83;;
24547;SDS011;12713;51.624;4.924;2023-08-07T09:00:25;8.95;;;2.05;;
24547;SDS011;12713;51.624;4.924;2023-08-07T09:02:52;8.52;;;2.20;;
24547;SDS011;12713;51.624;4.924;2023-08-07T09:05:18;10.63;;;2.53;;
24547;SDS011;12713;51.624;4.924;2023-08-07T09:07:54;7.82;;;2.25;;
24547;SDS011;12713;51.624;4.924;2023-08-07T09:10:21;6.55;;;2.30;;
24547;SDS011;12713;51.624;4.924;2023-08-07T09:12:58;6.70;;;2.58;;
24547;SDS011;12713;51.624;4.924;2023-08-07T09:15:25;4.97;;;2.30;;
24547;SDS011;12713;51.624;4.924;2023-08-07T09:17:55;8.00;;;2.17;;
24547;SDS011;12713;51.624;4.924;2023-08-07T09:20:22;11.93;;;2.42;;
24547;SDS011;12713;51.624;4.924;2023-08-07T09:22:48;10.48;;;2.40;;
24547;SDS011;12713;51.624;4.924;2023-08-07T09:25:14;8.27;;;2.58;;
24547;SDS011;12713;51.624;4.924;2023-08-07T09:27:40;13.15;;;2.40;;
24547;SDS011;12713;51.624;4.924;2023-08-07T09:30:06;6.57;;;2.65;;
24547;SDS011;12713;51.624;4.924;2023-08-07T09:32:38;7.03;;;2.15;;
24547;SDS011;12713;51.624;4.924;2023-08-07T09:35:05;9.75;;;2.08;;
24547;SDS011;12713;51.624;4.924;2023-08-07T09:37:36;8.25;;;2.42;;
24547;SDS011;12713;51.624;4.924;2023-08-07T09:40:03;4.30;;;2.10;;
24547;SDS011;12713;51.624;4.924;2023-08-07T09:42:32;5.75;;;2.20;;
24547;SDS011;12713;51.624;4.924;2023-08-07T09:45:01;5.65;;;2.22;;
24547;SDS011;12713;51.624;4.924;2023-08-07T09:47:28;6.80;;;2.10;;
24547;SDS011;12713;51.624;4.924;2023-08-07T09:49:57;8.95;;;2.15;;
24547;SDS011;12713;51.624;4.924;2023-08-07T09:52:33;9.75;;;2.25;;
24547;SDS011;12713;51.624;4.924;2023-08-07T09:54:59;5.55;;;1.88;;
24547;SDS011;12713;51.624;4.924;2023-08-07T09:57:25;6.43;;;2.22;;
24547;SDS011;12713;51.624;4.924;2023-08-07T10:00:02;8.05;;;2.35;;
24547;SDS011;12713;51.624;4.924;2023-08-07T10:02:33;6.30;;;2.00;;
24547;SDS011;12713;51.624;4.924;2023-08-07T10:11:07;6.45;;;2.03;;
24547;SDS011;12713;51.624;4.924;2023-08-07T10:13:35;7.05;;;2.35;;
24547;SDS011;12713;51.624;4.924;2023-08-07T10:16:04;7.15;;;2.15;;
24547;SDS011;12713;51.624;4.924;2023-08-07T10:18:30;3.00;;;1.77;;
24547;SDS011;12713;51.624;4.924;2023-08-07T10:20:59;4.05;;;1.88;;
24547;SDS011;12713;51.624;4.924;2023-08-07T10:23:29;4.72;;;1.65;;
24547;SDS011;12713;51.624;4.924;2023-08-07T10:25:58;7.95;;;2.50;;
24547;SDS011;12713;51.624;4.924;2023-08-07T10:28:35;9.63;;;1.63;;
24547;SDS011;12713;51.624;4.924;2023-08-07T10:31:16;5.47;;;1.92;;
24547;SDS011;12713;51.624;4.924;2023-08-07T10:33:49;6.32;;;2.45;;
24547;SDS011;12713;51.624;4.924;2023-08-07T10:36:18;4.72;;;1.90;;
24547;SDS011;12713;51.624;4.924;2023-08-07T10:38:47;5.03;;;2.10;;
24547;SDS011;12713;51.624;4.924;2023-08-07T10:41:15;4.82;;;1.70;;
24547;SDS011;12713;51.624;4.924;2023-08-07T10:43:55;5.63;;;2.42;;
24547;SDS011;12713;51.624;4.924;2023-08-07T10:46:25;13.93;;;2.17;;
24547;SDS011;12713;51.624;4.924;2023-08-07T10:48:54;6.00;;;2.20;;
24547;SDS011;12713;51.624;4.924;2023-08-07T10:53:53;7.05;;;2.20;;
24547;SDS011;12713;51.624;4.924;2023-08-07T10:56:31;4.05;;;2.63;;
24547;SDS011;12713;51.624;4.924;2023-08-07T10:58:57;10.45;;;2.40;;
24547;SDS011;12713;51.624;4.924;2023-08-07T11:04:48;4.90;;;2.45;;
24547;SDS011;12713;51.624;4.924;2023-08-07T11:56:15;11.00;;;2.95;;
24547;SDS011;12713;51.624;4.924;2023-08-07T11:58:45;5.70;;;2.95;;
24547;SDS011;12713;51.624;4.924;2023-08-07T12:01:12;9.40;;;3.05;;
24547;SDS011;12713;51.624;4.924;2023-08-07T12:09:44;7.95;;;2.97;;
24547;SDS011;12713;51.624;4.924;2023-08-07T12:12:13;10.52;;;3.10;;
24547;SDS011;12713;51.624;4.924;2023-08-07T12:20:50;14.38;;;3.80;;
24547;SDS011;12713;51.624;4.924;2023-08-07T12:23:17;9.57;;;2.90;;
24547;SDS011;12713;51.624;4.924;2023-08-07T12:25:44;8.40;;;2.70;;
24547;SDS011;12713;51.624;4.924;2023-08-07T12:28:21;6.40;;;2.72;;
24547;SDS011;12713;51.624;4.924;2023-08-07T12:30:47;10.10;;;2.53;;
24547;SDS011;12713;51.624;4.924;2023-08-07T12:33:14;6.85;;;2.80;;
24547;SDS011;12713;51.624;4.924;2023-08-07T12:35:40;6.32;;;2.75;;
24547;SDS011;12713;51.624;4.924;2023-08-07T12:38:08;5.78;;;2.50;;
24547;SDS011;12713;51.624;4.924;2023-08-07T12:40:34;5.55;;;2.67;;
24547;SDS011;12713;51.624;4.924;2023-08-07T12:43:03;5.70;;;2.10;;
24547;SDS011;12713;51.624;4.924;2023-08-07T12:45:30;7.97;;;2.55;;
24547;SDS011;12713;51.624;4.924;2023-08-07T12:47:59;3.47;;;2.20;;
24547;SDS011;12713;51.624;4.924;2023-08-07T12:50:25;4.93;;;2.25;;
24547;SDS011;12713;51.624;4.924;2023-08-07T12:52:51;6.70;;;2.78;;
24547;SDS011;12713;51.624;4.924;2023-08-07T12:55:20;6.63;;;2.20;;
24547;SDS011;12713;51.624;4.924;2023-08-07T12:57:46;5.78;;;2.65;;
24547;SDS011;12713;51.624;4.924;2023-08-07T13:00:14;6.38;;;2.45;;
24547;SDS011;12713;51.624;4.924;2023-08-07T13:02:41;4.00;;;2.45;;
24547;SDS011;12713;51.624;4.924;2023-08-07T13:05:08;5.15;;;2.13;;
24547;SDS011;12713;51.624;4.924;2023-08-07T13:07:36;5.90;;;2.55;;
24547;SDS011;12713;51.624;4.924;2023-08-07T13:10:07;3.65;;;1.70;;
24547;SDS011;12713;51.624;4.924;2023-08-07T13:12:34;3.28;;;2.05;;
24547;SDS011;12713;51.624;4.924;2023-08-07T13:15:04;6.43;;;2.00;;
24547;SDS011;12713;51.624;4.924;2023-08-07T13:17:30;3.88;;;2.00;;
24547;SDS011;12713;51.624;4.924;2023-08-07T13:19:56;5.32;;;2.08;;
24547;SDS011;12713;51.624;4.924;2023-08-07T13:22:23;3.35;;;1.42;;
24547;SDS011;12713;51.624;4.924;2023-08-07T13:24:49;2.22;;;1.55;;
24547;SDS011;12713;51.624;4.924;2023-08-07T13:27:19;3.65;;;1.67;;
24547;SDS011;12713;51.624;4.924;2023-08-07T13:29:45;2.92;;;1.85;;
24547;SDS011;12713;51.624;4.924;2023-08-07T13:32:11;4.70;;;1.90;;
24547;SDS011;12713;51.624;4.924;2023-08-07T13:34:37;2.60;;;1.70;;
24547;SDS011;12713;51.624;4.924;2023-08-07T13:37:06;3.28;;;1.80;;
24547;SDS011;12713;51.624;4.924;2023-08-07T13:39:35;4.53;;;1.47;;
24547;SDS011;12713;51.624;4.924;2023-08-07T13:42:02;2.58;;;1.17;;
24547;SDS011;12713;51.624;4.924;2023-08-07T13:44:28;3.78;;;1.60;;
24547;SDS011;12713;51.624;4.924;2023-08-07T13:46:54;4.18;;;1.60;;
24547;SDS011;12713;51.624;4.924;2023-08-07T13:49:21;2.30;;;1.50;;
24547;SDS011;12713;51.624;4.924;2023-08-07T13:51:50;2.38;;;1.48;;
24547;SDS011;12713;51.624;4.924;2023-08-07T13:54:19;2.35;;;1.70;;
24547;SDS011;12713;51.624;4.924;2023-08-07T13:56:45;3.40;;;1.60;;
24547;SDS011;12713;51.624;4.924;2023-08-07T13:59:11;3.20;;;1.33;;
24547;SDS011;12713;51.624;4.924;2023-08-07T14:01:37;3.58;;;1.92;;
24547;SDS011;12713;51.624;4.924;2023-08-07T14:04:03;2.33;;;1.33;;
24547;SDS011;12713;51.624;4.924;2023-08-07T14:06:29;4.53;;;2.50;;
24547;SDS011;12713;51.624;4.924;2023-08-07T14:08:58;4.03;;;1.58;;
24547;SDS011;12713;51.624;4.924;2023-08-07T14:11:25;5.55;;;1.60;;
24547;SDS011;12713;51.624;4.924;2023-08-07T14:13:55;2.42;;;1.50;;
24547;SDS011;12713;51.624;4.924;2023-08-07T14:16:30;3.15;;;1.58;;
24547;SDS011;12713;51.624;4.924;2023-08-07T14:18:59;2.58;;;1.60;;
24547;SDS011;12713;51.624;4.924;2023-08-07T14:21:27;5.03;;;1.90;;
24547;SDS011;12713;51.624;4.924;2023-08-07T14:23:59;3.42;;;1.80;;
24547;SDS011;12713;51.624;4.924;2023-08-07T14:26:25;1.85;;;1.52;;
24547;SDS011;12713;51.624;4.924;2023-08-07T14:28:51;3.38;;;1.75;;
24547;SDS011;12713;51.624;4.924;2023-08-07T14:31:17;3.17;;;1.77;;
24547;SDS011;12713;51.624;4.924;2023-08-07T14:33:43;3.67;;;1.83;;
24547;SDS011;12713;51.624;4.924;2023-08-07T14:36:10;5.95;;;1.60;;
24547;SDS011;12713;51.624;4.924;2023-08-07T14:38:36;3.83;;;1.70;;
24547;SDS011;12713;51.624;4.924;2023-08-07T14:41:04;3.03;;;1.50;;
24547;SDS011;12713;51.624;4.924;2023-08-07T14:43:30;5.80;;;1.60;;
24547;SDS011;12713;51.624;4.924;2023-08-07T14:45:57;2.45;;;1.50;;
24547;SDS011;12713;51.624;4.924;2023-08-07T14:48:26;2.85;;;1.60;;
24547;SDS011;12713;51.624;4.924;2023-08-07T14:50:52;3.78;;;1.50;;
24547;SDS011;12713;51.624;4.924;2023-08-07T14:53:20;3.20;;;1.38;;
24547;SDS011;12713;51.624;4.924;2023-08-07T14:55:46;2.65;;;1.25;;
24547;SDS011;12713;51.624;4.924;2023-08-07T14:58:12;2.53;;;1.30;;
24547;SDS011;12713;51.624;4.924;2023-08-07T15:00:41;2.40;;;1.30;;
24547;SDS011;12713;51.624;4.924;2023-08-07T15:03:07;3.50;;;1.20;;
24547;SDS011;12713;51.624;4.924;2023-08-07T15:05:33;3.03;;;1.25;;
24547;SDS011;12713;51.624;4.924;2023-08-07T15:08:05;3.15;;;1.45;;
24547;SDS011;12713;51.624;4.924;2023-08-07T15:10:31;1.70;;;1.30;;
24547;SDS011;12713;51.624;4.924;2023-08-07T15:13:01;3.58;;;1.13;;
24547;SDS011;12713;51.624;4.924;2023-08-07T15:15:27;2.58;;;1.25;;
24547;SDS011;12713;51.624;4.924;2023-08-07T15:17:53;3.20;;;1.45;;
24547;SDS011;12713;51.624;4.924;2023-08-07T15:20:19;1.52;;;1.13;;
24547;SDS011;12713;51.624;4.924;2023-08-07T15:22:46;3.88;;;1.02;;
24547;SDS011;12713;51.624;4.924;2023-08-07T15:25:13;2.75;;;1.25;;
24547;SDS011;12713;51.624;4.924;2023-08-07T15:27:39;3.03;;;1.10;;
24547;SDS011;12713;51.624;4.924;2023-08-07T15:30:05;2.55;;;1.17;;
24547;SDS011;12713;51.624;4.924;2023-08-07T15:32:35;8.27;;;1.20;;
24547;SDS011;12713;51.624;4.924;2023-08-07T15:35:01;2.08;;;1.00;;
24547;SDS011;12713;51.624;4.924;2023-08-07T15:37:27;1.88;;;1.13;;
24547;SDS011;12713;51.624;4.924;2023-08-07T15:39:56;4.72;;;1.10;;
24547;SDS011;12713;51.624;4.924;2023-08-07T15:42:22;2.38;;;1.13;;
24547;SDS011;12713;51.624;4.924;2023-08-07T15:44:51;1.55;;;1.13;;
24547;SDS011;12713;51.624;4.924;2023-08-07T15:47:17;6.30;;;2.00;;
24547;SDS011;12713;51.624;4.924;2023-08-07T15:49:43;3.75;;;1.00;;
24547;SDS011;12713;51.624;4.924;2023-08-07T15:52:14;6.78;;;1.42;;
24547;SDS011;12713;51.624;4.924;2023-08-07T15:54:40;3.65;;;1.50;;
24547;SDS011;12713;51.624;4.924;2023-08-07T15:57:08;5.68;;;1.20;;
24547;SDS011;12713;51.624;4.924;2023-08-07T15:59:34;4.55;;;1.08;;
24547;SDS011;12713;51.624;4.924;2023-08-07T16:02:00;2.92;;;1.20;;
24547;SDS011;12713;51.624;4.924;2023-08-07T16:04:26;4.68;;;1.23;;
24547;SDS011;12713;51.624;4.924;2023-08-07T16:06:53;3.05;;;0.93;;